createdAt,value
2017-04-19T00:00:11.108Z,98.96
2017-04-19T00:01:22.179Z,99.52
2017-04-19T00:02:33.208Z,99.99
2017-04-19T00:03:44.238Z,99.99
2017-04-19T00:04:55.458Z,99.9
2017-04-19T00:06:06.531Z,99.99
2017-04-19T00:07:17.760Z,99.71
2017-04-19T00:08:28.780Z,99.99
2017-04-19T00:09:39.808Z,99.99
2017-04-19T00:10:50.825Z,99.99
2017-04-19T00:12:01.847Z,99.99
2017-04-19T00:13:13.126Z,99.99
2017-04-19T00:14:24.148Z,99.99
2017-04-19T00:15:35.656Z,99.99
2017-04-19T00:16:46.686Z,99.99
2017-04-19T00:17:57.976Z,99.99
2017-04-19T00:19:09.002Z,99.99
2017-04-19T00:20:20.037Z,99.99
2017-04-19T00:21:31.054Z,99.99
2017-04-19T00:22:42.135Z,99.99
2017-04-19T00:23:53.164Z,99.99
2017-04-19T00:25:04.193Z,99.99
2017-04-19T00:26:15.627Z,99.99
2017-04-19T00:27:26.653Z,99.99
2017-04-19T00:28:37.663Z,99.99
2017-04-19T00:29:48.689Z,99.99
2017-04-19T00:30:59.705Z,99.99
2017-04-19T00:32:10.726Z,99.99
2017-04-19T00:33:21.993Z,99.99
2017-04-19T00:34:33.017Z,99.99
2017-04-19T00:35:44.055Z,99.99
2017-04-19T00:36:55.079Z,99.99
2017-04-19T00:38:06.102Z,99.99
2017-04-19T00:39:17.243Z,99.99
2017-04-19T00:40:28.276Z,99.99
2017-04-19T00:41:39.492Z,99.99
2017-04-19T00:42:50.512Z,99.99
2017-04-19T00:44:01.529Z,99.99
2017-04-19T00:45:12.549Z,99.99
2017-04-19T00:46:23.560Z,99.99
2017-04-19T00:47:34.601Z,99.99
2017-04-19T00:48:45.634Z,99.99
2017-04-19T00:49:56.671Z,99.99
2017-04-19T00:51:07.952Z,99.99
2017-04-19T00:52:19.177Z,99.99
2017-04-19T00:53:30.206Z,99.99
2017-04-19T00:54:41.249Z,99.99
2017-04-19T00:55:52.283Z,99.99
2017-04-19T00:57:03.303Z,99.99
2017-04-19T00:58:14.324Z,99.99
2017-04-19T00:59:25.524Z,99.99
2017-04-19T01:00:36.909Z,99.99
2017-04-19T01:01:47.922Z,99.99
2017-04-19T01:02:58.963Z,99.99
2017-04-19T01:04:09.988Z,99.99
2017-04-19T01:05:21.232Z,99.99
2017-04-19T01:06:32.252Z,99.99
2017-04-19T01:07:43.260Z,99.99
2017-04-19T01:08:54.291Z,99.99
2017-04-19T01:10:05.724Z,99.99
2017-04-19T01:11:16.989Z,99.99
2017-04-19T01:12:28.022Z,99.99
2017-04-19T01:13:39.042Z,99.99
2017-04-19T01:14:50.069Z,99.99
2017-04-19T01:16:01.086Z,99.99
2017-04-19T01:17:12.509Z,99.99
2017-04-19T01:18:23.589Z,99.99
2017-04-19T01:19:34.611Z,99.99
2017-04-19T01:20:45.835Z,99.99
2017-04-19T01:21:56.903Z,99.99
2017-04-19T01:23:08.121Z,99.99
2017-04-19T01:24:19.153Z,99.99
2017-04-19T01:25:30.164Z,99.99
2017-04-19T01:41:48.001Z,99.99
2017-04-19T01:42:59.076Z,99.99
2017-04-19T01:44:10.309Z,99.99
2017-04-19T01:45:21.388Z,99.99
2017-04-19T01:46:32.419Z,99.99
2017-04-19T01:47:43.649Z,99.99
2017-04-19T01:48:54.670Z,99.99
2017-04-19T01:50:05.691Z,99.99
2017-04-19T01:51:16.712Z,99.99
2017-04-19T01:52:27.933Z,99.99
2017-04-19T01:53:38.962Z,99.99
2017-04-19T01:54:50.026Z,99.99
2017-04-19T01:56:01.052Z,99.99
2017-04-19T01:57:12.076Z,99.99
2017-04-19T01:58:23.327Z,99.99
2017-04-19T01:59:34.349Z,99.99
2017-04-19T02:00:45.370Z,99.99
2017-04-19T02:01:56.381Z,99.99
2017-04-19T02:03:07.396Z,99.99
2017-04-19T02:04:18.413Z,99.99
2017-04-19T02:05:29.484Z,99.99
2017-04-19T02:06:40.502Z,99.99
2017-04-19T02:07:51.528Z,99.99
2017-04-19T02:09:02.550Z,99.99
2017-04-19T02:10:13.574Z,99.99
2017-04-19T02:11:24.607Z,99.99
2017-04-19T02:12:35.629Z,99.99
2017-04-19T02:13:46.657Z,99.99
2017-04-19T02:14:57.677Z,99.99
2017-04-19T02:16:08.897Z,99.99
2017-04-19T02:17:19.930Z,99.99
2017-04-19T02:18:30.967Z,99.99
2017-04-19T02:19:42.002Z,99.99
2017-04-19T02:20:53.022Z,99.99
2017-04-19T02:22:04.040Z,99.99
2017-04-19T02:23:15.139Z,99.99
2017-04-19T02:24:26.177Z,99.99
2017-04-19T02:25:37.206Z,99.99
2017-04-19T02:26:48.489Z,99.99
2017-04-19T02:27:59.529Z,99.99
2017-04-19T02:29:10.758Z,99.99
2017-04-19T02:30:21.987Z,99.99
2017-04-19T02:31:33.014Z,99.99
2017-04-19T02:32:44.037Z,99.99
2017-04-19T02:33:55.063Z,99.99
2017-04-19T02:35:06.081Z,99.99
2017-04-19T02:36:17.130Z,99.99
2017-04-19T02:37:28.413Z,99.99
2017-04-19T02:38:39.442Z,99.99
2017-04-19T02:39:50.493Z,99.99
2017-04-19T02:41:01.527Z,99.99
2017-04-19T02:42:12.549Z,99.99
2017-04-19T02:43:23.712Z,99.99
2017-04-19T02:44:34.729Z,99.99
2017-04-19T02:45:45.745Z,99.99
2017-04-19T02:46:56.759Z,99.99
2017-04-19T02:48:07.831Z,99.99
2017-04-19T02:49:18.860Z,99.99
2017-04-19T02:50:29.887Z,99.99
2017-04-19T02:51:40.906Z,99.99
2017-04-19T02:52:51.961Z,99.99
2017-04-19T02:54:03.047Z,99.99
2017-04-19T02:55:14.080Z,99.99
2017-04-19T02:56:25.303Z,99.99
2017-04-19T02:57:36.318Z,99.99
2017-04-19T02:58:47.334Z,99.99
2017-04-19T02:59:58.351Z,99.99
2017-04-19T03:01:09.379Z,99.99
2017-04-19T03:02:20.402Z,99.99
2017-04-19T03:03:31.438Z,99.99
2017-04-19T03:04:42.461Z,99.99
2017-04-19T03:05:53.726Z,99.99
2017-04-19T03:07:04.886Z,99.99
2017-04-19T03:08:16.107Z,99.99
2017-04-19T03:09:27.189Z,99.99
2017-04-19T03:10:38.480Z,99.99
2017-04-19T03:11:49.700Z,99.99
2017-04-19T03:13:00.929Z,99.99
2017-04-19T03:14:12.163Z,99.99
2017-04-19T03:15:23.389Z,99.99
2017-04-19T03:16:34.839Z,99.99
2017-04-19T03:17:46.066Z,99.99
2017-04-19T03:18:57.092Z,99.99
2017-04-19T03:20:08.111Z,99.99
2017-04-19T03:21:19.185Z,99.99
2017-04-19T03:22:30.406Z,99.99
2017-04-19T03:23:41.433Z,99.99
2017-04-19T03:24:52.465Z,99.99
2017-04-19T03:26:03.695Z,99.99
2017-04-19T03:27:14.986Z,99.99
2017-04-19T03:28:26.012Z,99.99
2017-04-19T03:29:37.283Z,99.99
2017-04-19T03:30:48.502Z,99.99
2017-04-19T03:31:59.975Z,99.99
2017-04-19T03:33:11.190Z,99.99
2017-04-19T03:34:22.209Z,99.99
2017-04-19T03:35:33.226Z,99.99
2017-04-19T03:36:44.244Z,99.99
2017-04-19T03:37:55.257Z,99.99
2017-04-19T03:39:06.272Z,99.99
2017-04-19T03:40:17.505Z,99.99
2017-04-19T03:41:28.532Z,99.99
2017-04-19T03:42:39.766Z,99.99
2017-04-19T03:43:50.796Z,99.99
2017-04-19T03:45:02.015Z,99.99
2017-04-19T03:46:13.036Z,99.99
2017-04-19T03:47:24.252Z,99.99
2017-04-19T03:48:35.528Z,99.99
2017-04-19T03:49:46.634Z,99.99
2017-04-19T03:50:57.652Z,99.99
2017-04-19T03:52:08.664Z,99.99
2017-04-19T03:53:19.687Z,99.99
2017-04-19T03:54:30.715Z,99.99
2017-04-19T03:55:41.739Z,99.99
2017-04-19T03:56:52.760Z,99.99
2017-04-19T03:58:03.972Z,99.99
2017-04-19T03:59:15.249Z,99.99
2017-04-19T04:00:26.258Z,99.99
2017-04-19T04:01:37.283Z,99.99
2017-04-19T04:02:48.300Z,99.99
2017-04-19T04:03:59.313Z,99.99
2017-04-19T04:05:10.527Z,99.99
2017-04-19T04:06:21.774Z,99.99
2017-04-19T04:07:33.008Z,99.99
2017-04-19T04:08:44.019Z,99.99
2017-04-19T04:09:55.087Z,99.99
2017-04-19T04:11:06.104Z,99.99
2017-04-19T04:12:17.127Z,99.99
2017-04-19T04:13:28.347Z,99.99
2017-04-19T04:14:39.380Z,99.99
2017-04-19T04:15:50.857Z,99.99
2017-04-19T04:17:01.885Z,99.99
2017-04-19T04:18:13.112Z,99.99
2017-04-19T04:19:24.598Z,99.99
2017-04-19T04:20:35.625Z,99.99
2017-04-19T04:21:46.853Z,99.99
2017-04-19T04:22:57.882Z,99.99
2017-04-19T04:24:08.898Z,99.99
2017-04-19T04:25:19.931Z,99.99
2017-04-19T04:26:30.965Z,99.99
2017-04-19T04:27:42.240Z,99.99
2017-04-19T04:28:53.263Z,99.99
2017-04-19T04:30:04.278Z,99.99
2017-04-19T04:31:15.472Z,99.99
2017-04-19T04:32:26.736Z,99.99
2017-04-19T04:33:37.772Z,99.99
2017-04-19T04:34:48.788Z,99.99
2017-04-19T04:35:59.813Z,99.99
2017-04-19T04:37:11.080Z,99.99
2017-04-19T04:38:22.101Z,99.99
2017-04-19T04:39:33.125Z,99.99
2017-04-19T04:40:44.144Z,99.99
2017-04-19T04:41:55.166Z,99.99
2017-04-19T04:43:06.183Z,99.99
2017-04-19T04:44:17.601Z,99.99
2017-04-19T04:45:28.611Z,99.99
2017-04-19T04:46:39.663Z,99.99
2017-04-19T04:47:50.940Z,99.99
2017-04-19T04:49:01.950Z,99.99
2017-04-19T04:50:12.965Z,99.99
2017-04-19T04:51:23.988Z,99.99
2017-04-19T04:52:35.015Z,99.99
2017-04-19T04:53:46.081Z,99.99
2017-04-19T04:54:57.129Z,99.99
2017-04-19T04:56:08.152Z,99.99
2017-04-19T04:57:19.164Z,99.99
2017-04-19T04:58:30.194Z,99.99
2017-04-19T04:59:41.219Z,99.99
2017-04-19T05:00:52.236Z,99.99
2017-04-19T05:02:03.260Z,99.99
2017-04-19T05:03:14.279Z,99.99
2017-04-19T05:04:25.296Z,99.99
2017-04-19T05:05:36.560Z,99.99
2017-04-19T05:06:47.594Z,99.99
2017-04-19T05:07:58.607Z,99.99
2017-04-19T05:09:09.627Z,99.99
2017-04-19T05:10:20.640Z,99.99
2017-04-19T05:11:31.666Z,99.99
2017-04-19T05:12:42.691Z,99.99
2017-04-19T05:13:53.908Z,99.99
2017-04-19T05:15:05.231Z,99.99
2017-04-19T05:16:16.436Z,99.99
2017-04-19T05:17:27.457Z,99.99
2017-04-19T05:18:38.488Z,99.99
2017-04-19T05:19:49.699Z,99.99
2017-04-19T05:21:00.975Z,99.99
2017-04-19T05:22:11.999Z,99.99
2017-04-19T05:23:23.014Z,99.99
2017-04-19T05:24:34.032Z,99.99
2017-04-19T05:25:45.296Z,99.99
2017-04-19T05:26:56.509Z,99.99
2017-04-19T05:28:07.731Z,99.99
2017-04-19T05:29:18.758Z,99.99
2017-04-19T05:30:29.776Z,99.99
2017-04-19T05:31:40.979Z,99.99
2017-04-19T05:32:52.009Z,99.99
2017-04-19T05:34:03.252Z,99.99
2017-04-19T05:35:14.474Z,99.99
2017-04-19T05:36:25.634Z,99.99
2017-04-19T05:37:36.655Z,99.99
2017-04-19T05:38:47.684Z,99.99
2017-04-19T05:39:58.703Z,99.99
2017-04-19T05:41:09.722Z,99.99
2017-04-19T05:42:20.741Z,99.99
2017-04-19T05:43:31.756Z,99.99
2017-04-19T05:44:42.974Z,99.99
2017-04-19T05:45:54.036Z,99.99
2017-04-19T05:47:05.323Z,99.99
2017-04-19T05:48:16.346Z,99.99
2017-04-19T05:49:27.365Z,99.99
2017-04-19T05:50:38.383Z,99.99
2017-04-19T05:51:49.399Z,99.99
2017-04-19T05:53:00.621Z,99.99
2017-04-19T05:54:11.643Z,99.99
2017-04-19T05:55:22.665Z,99.99
2017-04-19T05:56:33.685Z,99.99
2017-04-19T05:57:45.166Z,99.99
2017-04-19T05:58:56.306Z,99.99
2017-04-19T06:00:07.453Z,99.99
2017-04-19T06:01:18.474Z,99.99
2017-04-19T06:02:29.494Z,99.99
2017-04-19T06:03:40.721Z,99.99
2017-04-19T06:04:51.745Z,99.99
2017-04-19T06:06:02.968Z,99.99
2017-04-19T06:07:13.980Z,99.99
2017-04-19T06:08:25.054Z,99.99
2017-04-19T06:09:36.079Z,99.99
2017-04-19T06:10:47.110Z,99.99
2017-04-19T06:11:58.128Z,99.99
2017-04-19T06:13:09.140Z,99.99
2017-04-19T06:14:20.354Z,99.99
2017-04-19T06:15:31.385Z,99.99
2017-04-19T06:16:42.433Z,99.99
2017-04-19T06:17:53.464Z,99.99
2017-04-19T06:19:04.502Z,99.99
2017-04-19T06:20:15.783Z,99.99
2017-04-19T06:21:26.824Z,99.99
2017-04-19T06:22:37.883Z,99.99
2017-04-19T06:23:48.907Z,99.99
2017-04-19T06:24:59.930Z,99.99
2017-04-19T06:26:11.200Z,99.99
2017-04-19T06:27:22.236Z,99.99
2017-04-19T06:28:33.257Z,99.99
2017-04-19T06:29:44.278Z,99.39
2017-04-19T06:30:55.314Z,98.16
2017-04-19T06:32:06.345Z,97.07
2017-04-19T06:33:17.370Z,97.92
2017-04-19T06:34:28.390Z,94.6
2017-04-19T06:35:39.463Z,92.33
2017-04-19T06:36:50.488Z,93.13
2017-04-19T06:38:01.518Z,89.43
2017-04-19T06:39:12.533Z,87.49
2017-04-19T06:40:23.561Z,85.21
2017-04-19T06:41:34.587Z,84.45
2017-04-19T06:42:45.632Z,83.36
2017-04-19T06:43:56.658Z,82.12
2017-04-19T06:45:07.680Z,80.93
2017-04-19T06:46:18.758Z,79.69
2017-04-19T06:47:29.790Z,78.83
2017-04-19T06:48:41.020Z,77.55
2017-04-19T06:49:52.054Z,76.78
2017-04-19T06:51:03.091Z,76.69
2017-04-19T06:52:14.384Z,75.74
2017-04-19T06:53:25.409Z,76.63
2017-04-19T06:54:36.441Z,76.25
2017-04-19T06:55:47.472Z,75.02
2017-04-19T06:56:58.525Z,74.16
2017-04-19T06:58:09.556Z,73.59
2017-04-19T06:59:20.587Z,73.02
2017-04-19T07:00:31.831Z,74.01
2017-04-19T07:01:42.867Z,72.49
2017-04-19T07:02:53.892Z,70.33
2017-04-19T07:04:05.378Z,69.57
2017-04-19T07:05:16.623Z,69.67
2017-04-19T07:06:27.696Z,69.76
2017-04-19T07:07:38.733Z,68.9
2017-04-19T07:08:49.972Z,68.65
2017-04-19T07:10:01.013Z,68.46
2017-04-19T07:11:12.243Z,67.51
2017-04-19T07:12:23.276Z,67.22
2017-04-19T07:13:34.554Z,67.7
2017-04-19T07:14:45.593Z,68.08
2017-04-19T07:15:56.825Z,67.22
2017-04-19T07:17:07.860Z,67.41
2017-04-19T07:18:19.143Z,67.03
2017-04-19T07:19:30.384Z,67.61
2017-04-19T07:20:41.418Z,68.43
2017-04-19T07:21:52.460Z,70.1
2017-04-19T07:23:03.488Z,71.06
2017-04-19T07:24:14.770Z,70.87
2017-04-19T07:25:25.803Z,71.57
2017-04-19T07:26:36.935Z,70.05
2017-04-19T07:27:48.058Z,70.62
2017-04-19T07:28:59.105Z,70.43
2017-04-19T07:30:10.153Z,70.05
2017-04-19T07:31:21.200Z,69.85
2017-04-19T07:32:32.252Z,69.19
2017-04-19T07:33:43.283Z,69.48
2017-04-19T07:34:54.310Z,70.1
2017-04-19T07:36:05.343Z,70.14
2017-04-19T07:37:16.585Z,69.29
2017-04-19T07:38:27.614Z,68.46
2017-04-19T07:39:38.649Z,67.03
2017-04-19T07:40:49.890Z,67.26
2017-04-19T07:42:00.933Z,66.4
2017-04-19T07:43:11.954Z,66.37
2017-04-19T07:44:22.986Z,67.67
2017-04-19T07:45:34.287Z,69.1
2017-04-19T07:46:45.544Z,69.19
2017-04-19T07:47:56.581Z,69.63
2017-04-19T07:49:07.645Z,70.68
2017-04-19T07:50:18.679Z,72.55
2017-04-19T07:51:29.731Z,71.25
2017-04-19T07:52:40.766Z,71.82
2017-04-19T07:53:51.798Z,72.45
2017-04-19T07:55:02.834Z,73.49
2017-04-19T07:56:14.324Z,73.3
2017-04-19T07:57:25.554Z,72.35
2017-04-19T07:58:36.597Z,71.91
2017-04-19T07:59:47.621Z,71.72
2017-04-19T08:00:58.648Z,70.43
2017-04-19T08:02:09.717Z,69.95
2017-04-19T08:03:21.153Z,69.67
2017-04-19T08:04:32.175Z,69.63
2017-04-19T08:05:43.212Z,70.97
2017-04-19T08:06:54.724Z,69.54
2017-04-19T08:08:05.753Z,69.38
2017-04-19T08:09:16.786Z,68.21
2017-04-19T08:10:27.815Z,68.71
2017-04-19T08:11:38.842Z,68.59
2017-04-19T08:12:49.877Z,69.44
2017-04-19T08:14:01.121Z,70.1
2017-04-19T08:15:12.361Z,71.25
2017-04-19T08:16:23.387Z,72.55
2017-04-19T08:17:34.625Z,73.11
2017-04-19T08:18:45.651Z,72.16
2017-04-19T08:19:56.875Z,70.74
2017-04-19T08:21:07.914Z,70.13
2017-04-19T08:22:18.958Z,71.66
2017-04-19T08:23:30.402Z,71.66
2017-04-19T08:24:41.474Z,72.41
2017-04-19T08:25:52.503Z,71.66
2017-04-19T08:27:03.526Z,69.79
2017-04-19T08:28:14.559Z,70.07
2017-04-19T08:29:25.584Z,69.35
2017-04-19T08:30:36.628Z,67.82
2017-04-19T08:31:47.872Z,68.59
2017-04-19T08:32:58.913Z,69.06
2017-04-19T08:34:09.994Z,67.35
2017-04-19T08:35:21.022Z,65.1
2017-04-19T08:36:32.055Z,66.87
2017-04-19T08:37:43.086Z,66.91
2017-04-19T08:38:54.111Z,66.18
2017-04-19T08:40:05.336Z,64.21
2017-04-19T08:41:16.376Z,62.34
2017-04-19T08:42:27.414Z,62.05
2017-04-19T08:43:38.457Z,61.04
2017-04-19T08:44:49.533Z,59.73
2017-04-19T08:46:00.870Z,59.19
2017-04-19T08:47:12.057Z,58.14
2017-04-19T08:48:23.290Z,56.82
2017-04-19T08:49:34.319Z,54.08
2017-04-19T08:50:45.352Z,54.72
2017-04-19T08:51:56.594Z,57.46
2017-04-19T08:53:08.032Z,57.75
2017-04-19T08:54:19.475Z,56.32
2017-04-19T08:55:30.520Z,56.87
2017-04-19T08:56:41.564Z,56.93
2017-04-19T08:57:52.592Z,55.19
2017-04-19T08:59:03.837Z,57.38
2017-04-19T09:00:14.868Z,60.02
2017-04-19T09:01:25.904Z,60.88
2017-04-19T09:02:37.211Z,59.76
2017-04-19T09:03:48.256Z,58.69
2017-04-19T09:04:59.487Z,58.87
2017-04-19T09:06:10.560Z,60.05
2017-04-19T09:07:21.679Z,58.33
2017-04-19T09:08:32.924Z,59.86
2017-04-19T09:09:44.167Z,61.76
2017-04-19T09:10:55.402Z,58.94
2017-04-19T09:12:06.694Z,59.25
2017-04-19T09:13:17.735Z,58.48
2017-04-19T09:14:28.788Z,58.01
2017-04-19T09:15:39.828Z,58.68
2017-04-19T09:16:51.267Z,59.51
2017-04-19T09:18:02.304Z,58.01
2017-04-19T09:19:13.353Z,57.28
2017-04-19T09:20:24.387Z,54.22
2017-04-19T09:21:35.630Z,55.18
2017-04-19T09:22:46.923Z,57.06
2017-04-19T09:23:58.243Z,57.15
2017-04-19T09:25:09.621Z,55.05
2017-04-19T09:26:20.871Z,56.2
2017-04-19T09:27:31.910Z,56.2
2017-04-19T09:28:42.939Z,56.77
2017-04-19T09:29:53.983Z,55.91
2017-04-19T09:31:05.033Z,56.84
2017-04-19T09:32:16.075Z,58.07
2017-04-19T09:33:27.117Z,56.96
2017-04-19T09:34:38.154Z,55.62
2017-04-19T09:35:49.389Z,55.43
2017-04-19T09:37:00.421Z,56.77
2017-04-19T09:38:11.467Z,55.34
2017-04-19T09:39:22.559Z,56.43
2017-04-19T09:40:33.596Z,58.11
2017-04-19T09:41:44.640Z,59.89
2017-04-19T09:42:55.669Z,61.58
2017-04-19T09:44:06.833Z,61.96
2017-04-19T09:45:18.412Z,61.86
2017-04-19T09:46:29.442Z,60.75
2017-04-19T09:47:40.481Z,60.18
2017-04-19T09:48:51.499Z,61.42
2017-04-19T09:50:02.588Z,61.86
2017-04-19T09:51:13.630Z,61.38
2017-04-19T09:52:24.674Z,62.05
2017-04-19T09:53:35.912Z,63.2
2017-04-19T09:54:47.154Z,60.27
2017-04-19T09:55:58.193Z,60.05
2017-04-19T09:57:09.271Z,60.15
2017-04-19T09:58:20.302Z,61
2017-04-19T09:59:31.351Z,61.96
2017-04-19T10:00:42.445Z,60.44
2017-04-19T10:01:53.479Z,59.42
2017-04-19T10:03:04.507Z,61.7
2017-04-19T10:04:15.812Z,61.13
2017-04-19T10:05:26.981Z,60.34
2017-04-19T10:06:38.354Z,61.1
2017-04-19T10:07:49.389Z,62.15
2017-04-19T10:09:00.407Z,62.3
2017-04-19T10:10:11.435Z,62.78
2017-04-19T10:11:22.476Z,62.88
2017-04-19T10:12:33.505Z,63.07
2017-04-19T10:13:44.531Z,62.97
2017-04-19T10:14:55.556Z,62.21
2017-04-19T10:16:06.581Z,62.97
2017-04-19T10:17:17.638Z,63.32
2017-04-19T10:18:28.907Z,62.94
2017-04-19T10:19:39.939Z,63.13
2017-04-19T10:20:51.186Z,63.32
2017-04-19T10:22:02.206Z,62.94
2017-04-19T10:23:13.394Z,62.85
2017-04-19T10:24:24.511Z,63.76
2017-04-19T10:25:35.718Z,63.29
2017-04-19T10:26:46.746Z,63.67
2017-04-19T10:27:57.859Z,64.34
2017-04-19T10:29:08.899Z,64.81
2017-04-19T10:30:19.937Z,65.47
2017-04-19T10:31:30.970Z,65.47
2017-04-19T10:32:41.986Z,64.81
2017-04-19T10:33:53.006Z,64.43
2017-04-19T10:35:04.026Z,64.43
2017-04-19T10:36:15.056Z,65.38
2017-04-19T10:37:26.089Z,65.22
2017-04-19T10:38:37.366Z,65.6
2017-04-19T10:39:48.384Z,62.78
2017-04-19T10:40:59.410Z,61.45
2017-04-19T10:42:10.454Z,61.07
2017-04-19T10:43:21.882Z,61.26
2017-04-19T10:44:32.914Z,61.23
2017-04-19T10:45:44.062Z,62.59
2017-04-19T10:46:55.563Z,62.49
2017-04-19T10:48:06.588Z,63.35
2017-04-19T10:49:17.617Z,63.26
2017-04-19T10:50:28.640Z,63.42
2017-04-19T10:51:39.656Z,63.42
2017-04-19T10:52:50.893Z,63.7
2017-04-19T10:54:01.934Z,65.03
2017-04-19T10:55:12.964Z,65.47
2017-04-19T10:56:24.035Z,65.6
2017-04-19T10:57:35.460Z,65.32
2017-04-19T10:58:46.668Z,65.32
2017-04-19T10:59:57.688Z,63.42
2017-04-19T11:01:08.724Z,63.6
2017-04-19T11:02:19.760Z,65
2017-04-19T11:03:30.980Z,65.86
2017-04-19T11:04:42.093Z,64.27
2017-04-19T11:05:53.235Z,64.62
2017-04-19T11:07:04.265Z,65.32
2017-04-19T11:08:15.282Z,64.18
2017-04-19T11:09:26.496Z,61.23
2017-04-19T11:10:37.515Z,61.23
2017-04-19T11:11:48.538Z,62.08
2017-04-19T11:12:59.557Z,64.34
2017-04-19T11:14:10.576Z,63.86
2017-04-19T11:15:21.615Z,64.62
2017-04-19T11:16:32.688Z,65.03
2017-04-19T11:17:43.706Z,65.41
2017-04-19T11:18:54.934Z,66.55
2017-04-19T11:20:05.951Z,65.89
2017-04-19T11:21:16.971Z,65.51
2017-04-19T11:22:27.984Z,63.6
2017-04-19T11:23:39.016Z,61.99
2017-04-19T11:24:50.033Z,62.85
2017-04-19T11:26:01.062Z,62.85
2017-04-19T11:27:12.297Z,63.6
2017-04-19T11:28:23.533Z,62.18
2017-04-19T11:29:34.568Z,62.08
2017-04-19T11:30:45.802Z,63.45
2017-04-19T11:31:56.833Z,63.83
2017-04-19T11:33:08.256Z,61.86
2017-04-19T11:34:19.331Z,57.04
2017-04-19T11:35:30.355Z,57.99
2017-04-19T11:36:41.387Z,58.69
2017-04-19T11:37:52.417Z,57.07
2017-04-19T11:39:03.449Z,55.63
2017-04-19T11:40:14.464Z,56.02
2017-04-19T11:41:25.492Z,56.97
2017-04-19T11:42:36.531Z,54.71
2017-04-19T11:43:47.614Z,52.9
2017-04-19T11:44:58.646Z,55.07
2017-04-19T11:46:09.909Z,55.07
2017-04-19T11:47:20.937Z,55.54
2017-04-19T11:48:32.015Z,53.89
2017-04-19T11:49:43.252Z,54.37
2017-04-19T11:50:54.275Z,54.47
2017-04-19T11:52:05.318Z,56.94
2017-04-19T11:53:16.551Z,57.92
2017-04-19T11:54:27.628Z,56.3
2017-04-19T11:55:38.652Z,57.26
2017-04-19T11:56:49.694Z,55.35
2017-04-19T11:58:00.930Z,55.54
2017-04-19T11:59:11.981Z,55.63
2017-04-19T12:00:23.010Z,54.18
2017-04-19T12:01:34.047Z,53.61
2017-04-19T12:02:45.280Z,54.56
2017-04-19T12:03:56.312Z,56.63
2017-04-19T12:05:07.543Z,57.48
2017-04-19T12:06:18.585Z,58.15
2017-04-19T12:07:29.856Z,59.2
2017-04-19T12:08:40.882Z,58.25
2017-04-19T12:09:51.910Z,58.06
2017-04-19T12:11:02.938Z,57.26
2017-04-19T12:12:13.962Z,57.1
2017-04-19T12:13:24.989Z,56.92
2017-04-19T12:14:36.016Z,58.15
2017-04-19T12:15:47.290Z,55.2
2017-04-19T12:16:58.316Z,54.25
2017-04-19T12:18:09.341Z,55.29
2017-04-19T12:19:20.367Z,57.1
2017-04-19T12:20:31.390Z,59.1
2017-04-19T12:21:42.430Z,58.44
2017-04-19T12:22:53.460Z,58.15
2017-04-19T12:24:04.682Z,60.44
2017-04-19T12:25:15.714Z,58.37
2017-04-19T12:26:27.183Z,56.94
2017-04-19T12:27:38.209Z,58.65
2017-04-19T12:28:49.243Z,57.99
2017-04-19T12:30:00.272Z,56.21
2017-04-19T12:31:11.306Z,54.97
2017-04-19T12:32:22.345Z,56.4
2017-04-19T12:33:33.358Z,58.11
2017-04-19T12:34:44.389Z,59.26
2017-04-19T12:35:55.425Z,58.97
2017-04-19T12:37:06.501Z,59.26
2017-04-19T12:38:17.737Z,56.97
2017-04-19T12:39:28.764Z,57.48
2017-04-19T12:40:39.800Z,55.38
2017-04-19T12:41:50.832Z,57.09
2017-04-19T12:43:02.064Z,57.07
2017-04-19T12:44:13.097Z,58.21
2017-04-19T12:45:24.337Z,55.16
2017-04-19T12:46:35.374Z,55.16
2017-04-19T12:47:46.412Z,55.26
2017-04-19T12:48:57.590Z,56.37
2017-04-19T12:50:08.612Z,58.28
2017-04-19T12:51:19.646Z,58.18
2017-04-19T12:52:30.666Z,57.07
2017-04-19T12:53:41.690Z,57.45
2017-04-19T12:54:52.705Z,57.26
2017-04-19T12:56:03.738Z,55.92
2017-04-19T12:57:14.770Z,54.85
2017-04-19T12:58:25.865Z,56.46
2017-04-19T12:59:36.896Z,57.13
2017-04-19T13:00:47.915Z,56.56
2017-04-19T13:01:58.934Z,56.94
2017-04-19T13:03:10.159Z,59.39
2017-04-19T13:04:21.384Z,58.44
2017-04-19T13:05:32.627Z,59.29
2017-04-19T13:06:43.657Z,59.64
2017-04-19T13:07:54.676Z,60.15
2017-04-19T13:09:05.748Z,60.24
2017-04-19T13:10:16.764Z,59.61
2017-04-19T13:11:27.793Z,58.84
2017-04-19T13:12:38.820Z,57.13
2017-04-19T13:13:49.827Z,57.45
2017-04-19T13:15:00.865Z,54.11
2017-04-19T13:16:11.895Z,56.4
2017-04-19T13:17:22.923Z,55.83
2017-04-19T13:18:33.950Z,52.87
2017-04-19T13:19:44.987Z,54.11
2017-04-19T13:20:56.002Z,57.38
2017-04-19T13:22:07.231Z,57.28
2017-04-19T13:23:18.261Z,56.36
2017-04-19T13:24:29.273Z,55.69
2017-04-19T13:25:40.308Z,55.12
2017-04-19T13:26:51.546Z,54.93
2017-04-19T13:28:02.566Z,53.19
2017-04-19T13:29:13.797Z,53.38
2017-04-19T13:30:25.014Z,53.38
2017-04-19T13:31:36.238Z,54.3
2017-04-19T13:32:47.269Z,56.46
2017-04-19T13:33:58.490Z,57.6
2017-04-19T13:35:09.522Z,58.25
2017-04-19T13:36:20.544Z,59.39
2017-04-19T13:37:31.566Z,60.34
2017-04-19T13:38:42.583Z,59.2
2017-04-19T13:39:53.811Z,60.05
2017-04-19T13:41:04.881Z,61.1
2017-04-19T13:42:15.904Z,61.19
2017-04-19T13:43:27.133Z,60.15
2017-04-19T13:44:38.350Z,59.39
2017-04-19T13:45:49.376Z,60.15
2017-04-19T13:47:00.610Z,60.05
2017-04-19T13:48:11.647Z,59.1
2017-04-19T13:49:22.765Z,58.53
2017-04-19T13:50:34.189Z,58.15
2017-04-19T13:51:45.274Z,58.44
2017-04-19T13:52:56.302Z,59.39
2017-04-19T13:54:07.545Z,61.19
2017-04-19T13:55:18.574Z,61.86
2017-04-19T13:56:29.624Z,58.56
2017-04-19T13:57:40.680Z,60.75
2017-04-19T13:58:51.697Z,60.08
2017-04-19T14:00:02.911Z,56.87
2017-04-19T14:01:13.939Z,58.11
2017-04-19T14:02:24.956Z,56.52
2017-04-19T14:03:36.184Z,58.24
2017-04-19T14:04:47.424Z,58.14
2017-04-19T14:05:58.456Z,57.57
2017-04-19T14:07:09.477Z,57.19
2017-04-19T14:08:20.559Z,56.62
2017-04-19T14:09:31.578Z,55.07
2017-04-19T14:10:42.802Z,55.92
2017-04-19T14:11:54.013Z,57.07
2017-04-19T14:13:05.041Z,55.92
2017-04-19T14:14:16.065Z,56.27
2017-04-19T14:15:27.090Z,59.89
2017-04-19T14:16:38.113Z,60.37
2017-04-19T14:17:49.540Z,59.89
2017-04-19T14:19:00.801Z,58.56
2017-04-19T14:20:11.832Z,58.34
2017-04-19T14:21:22.861Z,59.48
2017-04-19T14:22:33.886Z,59.39
2017-04-19T14:23:44.900Z,58.53
2017-04-19T14:24:55.927Z,59.17
2017-04-19T14:26:06.959Z,59.93
2017-04-19T14:27:17.977Z,60.12
2017-04-19T14:28:29.008Z,61.16
2017-04-19T14:29:40.484Z,60.21
2017-04-19T14:30:51.509Z,60.12
2017-04-19T14:32:02.735Z,60.66
2017-04-19T14:33:13.757Z,61.52
2017-04-19T14:34:24.781Z,61.13
2017-04-19T14:35:35.825Z,61.52
2017-04-19T14:36:46.844Z,62.3
2017-04-19T14:37:57.861Z,60.88
2017-04-19T14:39:08.876Z,61.16
2017-04-19T14:40:19.902Z,62.21
2017-04-19T14:41:31.126Z,63.54
2017-04-19T14:42:42.148Z,62.81
2017-04-19T14:43:53.185Z,64.56
2017-04-19T14:45:04.404Z,59.13
2017-04-19T14:46:15.481Z,57.51
2017-04-19T14:47:26.516Z,58.28
2017-04-19T14:48:37.536Z,59.23
2017-04-19T14:49:48.590Z,59.23
2017-04-19T14:50:59.616Z,61.13
2017-04-19T14:52:10.658Z,60.66
2017-04-19T14:53:21.731Z,60.75
2017-04-19T14:54:32.912Z,60.94
2017-04-19T14:55:43.949Z,60.44
2017-04-19T14:56:55.230Z,60.34
2017-04-19T14:58:06.254Z,60.63
2017-04-19T14:59:17.485Z,60.05
2017-04-19T15:00:28.500Z,59.96
2017-04-19T15:01:39.727Z,59.86
2017-04-19T15:02:50.753Z,61.48
2017-04-19T15:04:01.982Z,61.29
2017-04-19T15:05:13.005Z,60.56
2017-04-19T15:06:24.034Z,61.13
2017-04-19T15:07:35.323Z,60.27
2017-04-19T15:08:46.545Z,59.35
2017-04-19T15:09:57.568Z,58.08
2017-04-19T15:11:08.600Z,57.89
2017-04-19T15:12:20.027Z,57.32
2017-04-19T15:13:31.052Z,57.89
2017-04-19T15:14:42.187Z,57.04
2017-04-19T15:15:53.329Z,56.24
2017-04-19T15:17:04.507Z,57.48
2017-04-19T15:18:15.526Z,58.81
2017-04-19T15:19:26.545Z,57.39
2017-04-19T15:20:37.972Z,58.44
2017-04-19T15:21:49.008Z,60.63
2017-04-19T15:23:00.034Z,59.86
2017-04-19T15:24:11.070Z,60.72
2017-04-19T15:25:22.150Z,62.15
2017-04-19T15:26:33.183Z,61.67
2017-04-19T15:27:44.203Z,63.1
2017-04-19T15:28:55.431Z,61.48
2017-04-19T15:30:06.465Z,61.96
2017-04-19T15:31:17.480Z,61.19
2017-04-19T15:32:28.505Z,60.91